createdAt,value
2018-12-04T00:02:28.931Z,4.87
2018-12-04T00:04:59.817Z,5.10
2018-12-04T00:07:30.712Z,4.33
2018-12-04T00:10:01.535Z,4.33
2018-12-04T00:12:32.712Z,4.60
2018-12-04T00:15:03.692Z,5.40
2018-12-04T00:17:34.617Z,5.00
2018-12-04T00:20:06.061Z,5.30
2018-12-04T00:22:36.922Z,5.40
2018-12-04T00:25:07.791Z,5.63
2018-12-04T00:27:38.672Z,4.57
2018-12-04T00:30:09.891Z,5.40
2018-12-04T00:32:40.671Z,5.33
2018-12-04T00:35:11.362Z,5.63
2018-12-04T00:37:42.141Z,5.33
2018-12-04T00:40:12.871Z,5.23
2018-12-04T00:42:43.817Z,4.63
2018-12-04T00:45:14.631Z,4.37
2018-12-04T00:47:45.421Z,4.83
2018-12-04T00:50:16.266Z,3.53
2018-12-04T00:52:47.191Z,4.27
2018-12-04T00:55:17.971Z,3.63
2018-12-04T00:57:48.731Z,4.60
2018-12-04T01:00:19.750Z,4.30
2018-12-04T01:02:50.566Z,4.57
2018-12-04T01:05:21.231Z,4.40
2018-12-04T01:07:52.017Z,4.07
2018-12-04T01:10:22.856Z,4.30
2018-12-04T01:12:53.798Z,4.60
2018-12-04T01:15:24.721Z,4.07
2018-12-04T01:17:55.481Z,4.43
2018-12-04T01:20:26.292Z,4.43
2018-12-04T01:22:57.191Z,4.10
2018-12-04T01:25:28.091Z,3.97
2018-12-04T01:27:58.976Z,4.63
2018-12-04T01:30:29.971Z,3.73
2018-12-04T01:33:00.895Z,3.83
2018-12-04T01:35:31.717Z,4.27
2018-12-04T01:38:02.571Z,4.50
2018-12-04T01:40:33.417Z,4.40
2018-12-04T01:43:04.322Z,3.70
2018-12-04T01:45:35.131Z,4.17
2018-12-04T01:48:06.072Z,4.87
2018-12-04T01:50:36.941Z,3.97
2018-12-04T01:53:07.801Z,4.30
2018-12-04T01:55:38.651Z,4.20
2018-12-04T01:58:09.675Z,5.27
2018-12-04T02:00:40.677Z,4.00
2018-12-04T02:03:11.611Z,4.90
2018-12-04T02:05:42.511Z,3.67
2018-12-04T02:08:13.516Z,4.33
2018-12-04T02:10:44.336Z,4.20
2018-12-04T02:13:15.232Z,4.20
2018-12-04T02:15:46.016Z,4.00
2018-12-04T02:18:16.881Z,4.63
2018-12-04T02:20:53.462Z,4.50
2018-12-04T02:23:24.375Z,4.57
2018-12-04T02:25:55.115Z,4.00
2018-12-04T02:28:29.911Z,4.50
2018-12-04T02:31:00.870Z,3.63
2018-12-04T02:33:32.021Z,4.33
2018-12-04T02:36:03.117Z,4.07
2018-12-04T02:38:41.649Z,4.07
2018-12-04T02:41:12.735Z,4.03
2018-12-04T02:43:43.727Z,4.83
2018-12-04T02:46:14.531Z,4.23
2018-12-04T02:48:45.477Z,4.27
2018-12-04T02:51:16.566Z,3.73
2018-12-04T02:53:47.590Z,4.17
2018-12-04T02:56:18.431Z,4.13
2018-12-04T02:58:49.521Z,4.00
2018-12-04T03:01:20.640Z,4.40
2018-12-04T03:03:51.745Z,4.07
2018-12-04T03:06:23.162Z,5.00
2018-12-04T03:08:54.037Z,4.10
2018-12-04T03:11:24.891Z,3.77
2018-12-04T03:13:55.731Z,4.37
2018-12-04T03:16:26.581Z,4.23
2018-12-04T03:18:57.396Z,3.57
2018-12-04T03:21:28.192Z,4.90
2018-12-04T03:23:59.071Z,4.10
2018-12-04T03:26:29.872Z,5.00
2018-12-04T03:29:00.751Z,3.73
2018-12-04T03:31:31.692Z,3.90
2018-12-04T03:34:02.529Z,3.63
2018-12-04T03:36:33.395Z,3.90
2018-12-04T03:39:07.842Z,4.13
2018-12-04T03:41:38.657Z,4.03
2018-12-04T03:44:09.502Z,4.07
2018-12-04T03:46:40.342Z,4.33
2018-12-04T03:49:11.163Z,4.37
2018-12-04T03:51:42.052Z,4.63
2018-12-04T03:54:12.986Z,4.50
2018-12-04T03:56:43.851Z,4.70
2018-12-04T03:59:14.680Z,5.07
2018-12-04T04:01:45.712Z,4.93
2018-12-04T04:04:16.521Z,4.63
2018-12-04T04:06:47.474Z,4.63
2018-12-04T04:09:18.297Z,4.90
2018-12-04T04:11:49.209Z,5.00
2018-12-04T04:14:20.032Z,5.13
2018-12-04T04:16:50.826Z,4.97
2018-12-04T04:19:21.637Z,4.63
2018-12-04T04:21:52.477Z,4.83
2018-12-04T04:24:23.392Z,4.70
2018-12-04T04:26:54.145Z,4.80
2018-12-04T04:29:25.171Z,5.17
2018-12-04T04:31:56.332Z,5.07
2018-12-04T04:34:27.333Z,5.83
2018-12-04T04:36:58.213Z,4.67
2018-12-04T04:39:29.193Z,4.90
2018-12-04T04:42:00.057Z,5.23
2018-12-04T04:44:30.963Z,5.47
2018-12-04T04:47:01.764Z,5.30
2018-12-04T04:49:32.622Z,5.47
2018-12-04T04:52:03.418Z,5.07
2018-12-04T04:54:34.307Z,5.70
2018-12-04T04:57:05.249Z,5.53
2018-12-04T04:59:36.172Z,5.33
2018-12-04T05:02:07.274Z,5.47
2018-12-04T05:04:38.168Z,5.27
2018-12-04T05:07:08.954Z,6.13
2018-12-04T05:09:39.994Z,6.20
2018-12-04T05:12:11.093Z,6.40
2018-12-04T05:14:42.043Z,6.27
2018-12-04T05:17:12.893Z,6.93
2018-12-04T05:19:43.793Z,6.60
2018-12-04T05:22:14.673Z,7.17
2018-12-04T05:24:45.633Z,7.83
2018-12-04T05:27:16.472Z,6.67
2018-12-04T05:29:47.413Z,7.43
2018-12-04T05:32:18.453Z,9.07
2018-12-04T05:34:49.452Z,7.97
2018-12-04T05:37:20.243Z,7.67
2018-12-04T05:39:51.408Z,6.83
2018-12-04T05:42:22.324Z,7.07
2018-12-04T05:44:53.352Z,7.63
2018-12-04T05:47:24.207Z,7.13
2018-12-04T05:49:55.342Z,6.80
2018-12-04T05:52:26.272Z,6.30
2018-12-04T05:54:57.359Z,6.23
2018-12-04T05:57:28.315Z,6.27
2018-12-04T05:59:59.463Z,5.80
2018-12-04T06:02:30.540Z,5.73
2018-12-04T06:05:01.542Z,5.87
2018-12-04T06:07:32.352Z,6.77
2018-12-04T06:10:03.317Z,5.57
2018-12-04T06:12:34.275Z,7.67
2018-12-04T06:15:05.807Z,6.90
2018-12-04T06:17:36.618Z,7.27
2018-12-04T06:20:07.733Z,6.37
2018-12-04T06:22:38.531Z,7.23
2018-12-04T06:25:09.412Z,6.57
2018-12-04T06:27:40.196Z,6.03
2018-12-04T06:30:11.141Z,6.80
2018-12-04T06:32:42.077Z,6.30
2018-12-04T06:35:13.082Z,5.30
2018-12-04T06:37:43.972Z,6.13
2018-12-04T06:40:14.931Z,6.33
2018-12-04T06:42:45.728Z,7.90
2018-12-04T06:45:16.613Z,5.97
2018-12-04T06:47:47.457Z,6.33
2018-12-04T06:50:18.336Z,5.97
2018-12-04T06:52:50.282Z,7.20
2018-12-04T06:55:21.301Z,7.33
2018-12-04T06:57:59.754Z,7.23
2018-12-04T07:00:30.807Z,8.60
2018-12-04T07:03:01.937Z,7.57
2018-12-04T07:05:32.917Z,8.37
2018-12-04T07:08:03.887Z,8.97
2018-12-04T07:10:35.281Z,7.40
2018-12-04T07:13:06.273Z,8.23
2018-12-04T07:15:37.347Z,9.00
2018-12-04T07:18:08.242Z,10.37
2018-12-04T07:20:39.257Z,10.03
2018-12-04T07:23:10.262Z,8.77
2018-12-04T07:25:41.196Z,8.50
2018-12-04T07:28:12.187Z,9.13
2018-12-04T07:30:43.288Z,8.83
2018-12-04T07:33:14.299Z,9.13
2018-12-04T07:35:45.252Z,8.97
2018-12-04T07:38:16.247Z,8.70
2018-12-04T07:40:47.302Z,9.40
2018-12-04T07:43:18.439Z,9.53
2018-12-04T07:45:49.483Z,8.73
2018-12-04T07:48:20.717Z,8.27
2018-12-04T07:50:51.752Z,8.50
2018-12-04T07:53:23.119Z,8.87
2018-12-04T07:55:54.108Z,8.63
2018-12-04T07:58:25.208Z,8.00
2018-12-04T08:00:56.326Z,8.47
2018-12-04T08:03:27.767Z,9.00
2018-12-04T08:06:00.873Z,9.17
2018-12-04T08:08:31.747Z,9.53
2018-12-04T08:11:02.807Z,9.13
2018-12-04T08:13:34.157Z,9.10
2018-12-04T08:16:06.282Z,9.43
2018-12-04T08:18:37.882Z,10.03
2018-12-04T08:21:09.027Z,9.00
2018-12-04T08:23:39.902Z,9.07
2018-12-04T08:26:11.051Z,8.63
2018-12-04T08:28:42.172Z,8.93
2018-12-04T08:31:13.246Z,9.30
2018-12-04T08:33:44.450Z,9.77
2018-12-04T08:36:15.526Z,9.87
2018-12-04T08:38:46.476Z,9.77
2018-12-04T08:41:17.454Z,9.27
2018-12-04T08:43:48.497Z,10.03
2018-12-04T08:46:19.446Z,10.17
2018-12-04T08:48:50.492Z,8.80
2018-12-04T08:51:21.586Z,9.53
2018-12-04T08:53:52.566Z,8.77
2018-12-04T08:56:23.538Z,9.50
2018-12-04T08:58:54.886Z,9.93
2018-12-04T09:01:25.911Z,10.33
2018-12-04T09:03:59.323Z,8.53
2018-12-04T09:06:34.502Z,9.37
2018-12-04T09:09:08.822Z,8.73
2018-12-04T09:11:40.946Z,9.00
2018-12-04T09:14:12.137Z,8.87
2018-12-04T09:16:43.451Z,8.53
2018-12-04T09:19:14.392Z,8.47
2018-12-04T09:21:45.518Z,8.90
2018-12-04T09:24:16.681Z,9.00
2018-12-04T09:26:47.855Z,9.17
2018-12-04T09:29:18.888Z,8.37
2018-12-04T09:31:50.006Z,8.40
2018-12-04T09:34:21.171Z,8.77
2018-12-04T09:36:52.249Z,8.77
2018-12-04T09:39:23.146Z,8.23
2018-12-04T09:41:54.426Z,7.43
2018-12-04T09:44:25.286Z,8.53
2018-12-04T09:46:56.289Z,8.00
2018-12-04T09:49:27.777Z,7.93
2018-12-04T09:51:58.948Z,8.40
2018-12-04T09:54:30.041Z,8.40
2018-12-04T09:57:02.392Z,9.40
2018-12-04T09:59:39.202Z,7.80
2018-12-04T10:02:06.916Z,8.60
2018-12-04T10:04:38.077Z,7.57
2018-12-04T10:07:09.184Z,7.30
2018-12-04T10:09:40.271Z,7.50
2018-12-04T10:12:11.481Z,7.83
2018-12-04T10:14:42.359Z,7.37
2018-12-04T10:17:13.531Z,7.33
2018-12-04T10:19:44.741Z,7.33
2018-12-04T10:22:15.836Z,7.03
2018-12-04T10:24:47.126Z,6.50
2018-12-04T10:27:18.225Z,7.10
2018-12-04T10:29:49.255Z,7.47
2018-12-04T10:32:20.546Z,6.97
2018-12-04T10:34:51.695Z,7.47
2018-12-04T10:37:22.836Z,7.00
2018-12-04T10:39:53.986Z,7.20
2018-12-04T10:42:25.396Z,6.33
2018-12-04T10:44:56.435Z,7.07
2018-12-04T10:47:27.930Z,7.00
2018-12-04T10:49:58.790Z,6.97
2018-12-04T10:52:29.880Z,6.27
2018-12-04T10:55:00.855Z,6.73
2018-12-04T10:57:33.060Z,6.07
2018-12-04T11:00:06.020Z,6.33
2018-12-04T11:02:42.410Z,5.90
2018-12-04T11:05:13.600Z,5.73
2018-12-04T11:07:44.850Z,6.00
2018-12-04T11:10:16.225Z,6.33
2018-12-04T11:12:47.421Z,6.67
2018-12-04T11:15:18.612Z,5.73
2018-12-04T11:17:49.999Z,6.20
2018-12-04T11:20:21.250Z,6.23
2018-12-04T11:22:52.725Z,6.13
2018-12-04T11:25:23.913Z,6.23
2018-12-04T11:27:55.238Z,5.57
2018-12-04T11:30:26.021Z,5.53
2018-12-04T11:32:56.941Z,6.27
2018-12-04T11:35:28.392Z,6.33
2018-12-04T11:37:59.806Z,5.80
2018-12-04T11:40:30.962Z,6.53
2018-12-04T11:43:08.545Z,6.60
2018-12-04T11:45:39.646Z,5.23
2018-12-04T11:48:10.841Z,5.93
2018-12-04T11:50:41.865Z,5.40
2018-12-04T11:53:13.400Z,6.03
2018-12-04T11:55:44.247Z,5.57
2018-12-04T11:58:15.376Z,5.97
2018-12-04T12:00:46.620Z,6.63
2018-12-04T12:03:17.736Z,5.83
2018-12-04T12:05:48.957Z,4.57
2018-12-04T12:08:22.016Z,4.93
2018-12-04T12:10:52.917Z,5.30
2018-12-04T12:13:24.110Z,5.03
2018-12-04T12:15:55.006Z,4.43
2018-12-04T12:18:26.421Z,5.17
2018-12-04T12:20:57.771Z,5.23
2018-12-04T12:23:28.759Z,4.10
2018-12-04T12:26:00.049Z,4.00
2018-12-04T12:28:30.915Z,3.50
2018-12-04T12:31:02.146Z,3.77
2018-12-04T12:33:33.096Z,3.67
2018-12-04T12:36:04.354Z,3.93
2018-12-04T12:38:35.256Z,4.30
2018-12-04T12:41:06.282Z,4.20
2018-12-04T12:43:37.591Z,3.87
2018-12-04T12:46:08.741Z,4.00
2018-12-04T12:48:39.976Z,3.73
2018-12-04T12:51:10.871Z,3.93
2018-12-04T12:53:41.946Z,3.43
2018-12-04T12:56:13.111Z,4.17
2018-12-04T12:58:44.316Z,4.03
2018-12-04T13:01:16.552Z,4.13
2018-12-04T13:03:47.902Z,3.80
2018-12-04T13:06:19.241Z,3.30
2018-12-04T13:08:50.090Z,3.50
2018-12-04T13:11:21.051Z,3.70
2018-12-04T13:13:52.701Z,3.43
2018-12-04T13:16:23.696Z,3.67
2018-12-04T13:18:55.262Z,3.20
2018-12-04T13:21:26.366Z,3.40
2018-12-04T13:23:57.401Z,4.10
2018-12-04T13:26:28.426Z,3.47
2018-12-04T13:28:59.694Z,3.20
2018-12-04T13:31:30.731Z,3.63
2018-12-04T13:34:02.013Z,3.03
2018-12-04T13:36:33.060Z,3.60
2018-12-04T13:39:05.827Z,3.50
2018-12-04T13:41:36.886Z,4.27
2018-12-04T13:44:08.059Z,3.87
2018-12-04T13:46:39.216Z,4.43
2018-12-04T13:49:10.445Z,3.50
2018-12-04T13:51:41.635Z,3.43
2018-12-04T13:54:13.049Z,3.53
2018-12-04T13:56:44.658Z,3.13
2018-12-04T13:59:16.455Z,2.80
2018-12-04T14:01:47.430Z,3.20
2018-12-04T14:04:18.799Z,2.70
2018-12-04T14:06:50.780Z,2.67
2018-12-04T14:09:25.681Z,2.77
2018-12-04T14:11:55.359Z,2.37
2018-12-04T14:14:26.308Z,2.70
2018-12-04T14:16:57.196Z,3.20
2018-12-04T14:19:28.711Z,2.90
2018-12-04T14:21:59.756Z,2.23
2018-12-04T14:24:31.001Z,1.97
2018-12-04T14:27:01.992Z,2.10
2018-12-04T14:29:32.898Z,2.53
2018-12-04T14:32:03.761Z,2.30
2018-12-04T14:34:35.114Z,2.50
2018-12-04T14:37:06.482Z,2.33
2018-12-04T14:39:37.691Z,2.40
2018-12-04T14:42:08.933Z,2.27
2018-12-04T14:44:40.479Z,2.50
2018-12-04T14:47:11.505Z,2.17
2018-12-04T14:49:42.751Z,1.97
2018-12-04T14:52:13.952Z,2.03
2018-12-04T14:54:45.159Z,2.93
2018-12-04T14:57:16.182Z,8.20
2018-12-04T14:59:47.344Z,8.17
2018-12-04T15:02:18.212Z,7.90
2018-12-04T15:04:49.268Z,3.30
2018-12-04T15:07:21.040Z,2.53
2018-12-04T15:09:52.102Z,2.20
2018-12-04T15:12:23.165Z,2.47
2018-12-04T15:14:55.891Z,2.70
2018-12-04T15:17:26.971Z,2.60
2018-12-04T15:19:57.867Z,2.67
2018-12-04T15:22:28.687Z,3.20
2018-12-04T15:24:59.674Z,3.30
2018-12-04T15:27:30.743Z,3.03
2018-12-04T15:30:01.735Z,3.90
2018-12-04T15:32:32.747Z,3.27
2018-12-04T15:35:04.139Z,3.30
2018-12-04T15:37:35.213Z,3.50
2018-12-04T15:40:07.447Z,2.87
2018-12-04T15:42:38.518Z,2.30
2018-12-04T15:45:09.633Z,2.63
2018-12-04T15:47:40.611Z,2.10
2018-12-04T15:50:11.878Z,2.43
2018-12-04T15:52:43.034Z,1.70
2018-12-04T15:55:14.276Z,2.30
2018-12-04T15:57:45.202Z,1.93
2018-12-04T16:00:16.160Z,2.20
2018-12-04T16:02:47.226Z,2.17
2018-12-04T16:05:18.506Z,2.23
2018-12-04T16:07:49.697Z,2.77
2018-12-04T16:10:20.869Z,1.63
2018-12-04T16:12:51.982Z,2.17
2018-12-04T16:15:22.967Z,3.10
2018-12-04T16:17:53.972Z,2.90
2018-12-04T16:20:24.919Z,2.30
2018-12-04T16:22:55.726Z,2.30
2018-12-04T16:25:27.862Z,2.40
2018-12-04T16:27:59.094Z,2.60
2018-12-04T16:30:30.102Z,2.43
2018-12-04T16:33:00.978Z,2.00
2018-12-04T16:35:32.042Z,2.13
2018-12-04T16:38:03.452Z,2.40
2018-12-04T16:40:34.692Z,2.20
2018-12-04T16:43:05.607Z,2.20
2018-12-04T16:45:36.852Z,2.53
2018-12-04T16:48:07.932Z,2.10
2018-12-04T16:50:38.952Z,2.20
2018-12-04T16:53:09.878Z,2.43
2018-12-04T16:55:40.854Z,2.20
2018-12-04T16:58:11.923Z,2.33
2018-12-04T17:00:42.957Z,2.57
2018-12-04T17:03:13.977Z,2.77
2018-12-04T17:05:44.928Z,3.07
2018-12-04T17:08:16.197Z,2.47
2018-12-04T17:10:47.144Z,2.03
2018-12-04T17:13:18.067Z,2.40
2018-12-04T17:15:49.129Z,1.83
2018-12-04T17:18:19.982Z,4.33
2018-12-04T17:20:50.989Z,2.57
2018-12-04T17:23:21.711Z,3.07
2018-12-04T17:25:52.642Z,2.90
2018-12-04T17:28:23.623Z,2.30
2018-12-04T17:30:54.564Z,1.80
2018-12-04T17:33:31.932Z,2.10
2018-12-04T17:36:03.097Z,1.57
2018-12-04T17:38:34.099Z,5.57
2018-12-04T17:41:05.202Z,41.97
2018-12-04T17:43:36.496Z,35.53
2018-12-04T17:46:07.533Z,9.23
2018-12-04T17:48:38.547Z,4.43
2018-12-04T17:51:09.643Z,2.13
2018-12-04T17:53:40.532Z,2.40
2018-12-04T17:56:19.897Z,2.50
2018-12-04T17:58:50.707Z,2.03
2018-12-04T18:01:21.608Z,1.93
2018-12-04T18:03:52.728Z,1.63
2018-12-04T18:06:23.657Z,2.30
2018-12-04T18:08:54.817Z,1.80
2018-12-04T18:11:27.807Z,1.80
2018-12-04T18:13:58.683Z,1.70
2018-12-04T18:16:29.607Z,1.90
2018-12-04T18:19:00.727Z,1.90
2018-12-04T18:21:31.657Z,1.80
2018-12-04T18:24:02.517Z,1.70
2018-12-04T18:26:33.414Z,1.40
2018-12-04T18:29:04.313Z,1.37
2018-12-04T18:31:35.143Z,1.87
2018-12-04T18:34:06.128Z,1.40
2018-12-04T18:36:37.032Z,1.87
2018-12-04T18:39:09.697Z,1.50
2018-12-04T18:41:41.682Z,1.27
2018-12-04T18:44:14.527Z,1.47
2018-12-04T18:46:49.582Z,1.77
2018-12-04T18:49:20.567Z,2.00
2018-12-04T18:51:51.492Z,1.93
2018-12-04T18:54:22.267Z,1.30
2018-12-04T18:56:53.402Z,1.80
2018-12-04T18:59:24.412Z,1.00
2018-12-04T19:01:55.288Z,1.70
2018-12-04T19:04:26.303Z,1.80
2018-12-04T19:06:57.112Z,1.73
2018-12-04T19:09:28.773Z,1.40
2018-12-04T19:11:59.724Z,1.40
2018-12-04T19:14:30.758Z,1.60
2018-12-04T19:17:01.687Z,1.30
2018-12-04T19:19:32.787Z,20.10
2018-12-04T19:22:03.797Z,8.60
2018-12-04T19:24:34.637Z,6.83
2018-12-04T19:27:05.538Z,1.97
2018-12-04T19:29:36.702Z,1.80
2018-12-04T19:32:07.657Z,2.53
2018-12-04T19:34:38.668Z,1.80
2018-12-04T19:37:09.587Z,2.27
2018-12-04T19:39:40.817Z,2.03
2018-12-04T19:42:11.805Z,2.07
2018-12-04T19:44:42.608Z,2.00
2018-12-04T19:47:13.447Z,2.07
2018-12-04T19:49:44.517Z,2.43
2018-12-04T19:52:15.412Z,2.27
2018-12-04T19:54:46.447Z,1.90
2018-12-04T19:57:17.352Z,1.97
2018-12-04T19:59:49.077Z,2.10
2018-12-04T20:02:20.352Z,2.90
2018-12-04T20:04:51.373Z,2.60
2018-12-04T20:07:22.337Z,2.53
2018-12-04T20:09:53.942Z,2.63
2018-12-04T20:12:24.831Z,1.73
2018-12-04T20:14:55.767Z,2.30
2018-12-04T20:17:26.692Z,2.27
2018-12-04T20:19:57.617Z,1.63
2018-12-04T20:22:28.597Z,1.90
2018-12-04T20:24:59.643Z,2.17
2018-12-04T20:27:30.512Z,1.90
2018-12-04T20:30:01.653Z,2.13
2018-12-04T20:32:32.689Z,2.33
2018-12-04T20:35:04.940Z,2.00
2018-12-04T20:37:36.106Z,1.63
2018-12-04T20:40:08.027Z,1.87
2018-12-04T20:42:38.907Z,1.70
2018-12-04T20:45:09.922Z,2.00
2018-12-04T20:47:40.867Z,2.00
2018-12-04T20:50:12.233Z,4.30
2018-12-04T20:52:43.207Z,3.07
2018-12-04T20:55:14.112Z,2.87
2018-12-04T20:57:45.157Z,4.97
2018-12-04T21:00:16.037Z,2.70
2018-12-04T21:02:47.087Z,6.00
2018-12-04T21:05:18.082Z,17.93
2018-12-04T21:07:49.033Z,26.57
2018-12-04T21:10:20.717Z,22.97
2018-12-04T21:12:51.697Z,3.70
2018-12-04T21:15:22.399Z,3.60
2018-12-04T21:17:53.332Z,2.87
2018-12-04T21:20:24.192Z,2.87
2018-12-04T21:22:55.263Z,2.07
2018-12-04T21:25:26.082Z,1.90
2018-12-04T21:28:02.902Z,4.50
2018-12-04T21:30:38.578Z,2.90
2018-12-04T21:34:12.008Z,3.17
2018-12-04T21:36:47.536Z,2.00
2018-12-04T21:39:22.502Z,2.20
2018-12-04T21:41:58.647Z,2.03
2018-12-04T21:44:34.487Z,2.63
2018-12-04T21:47:10.267Z,1.77
2018-12-04T21:49:41.117Z,1.90
2018-12-04T21:52:14.912Z,1.47
2018-12-04T21:54:45.753Z,1.83
2018-12-04T21:57:16.507Z,1.30
2018-12-04T21:59:47.377Z,1.20
2018-12-04T22:02:18.303Z,1.70
2018-12-04T22:04:49.223Z,1.53
2018-12-04T22:07:20.073Z,1.03
2018-12-04T22:09:51.753Z,1.80
2018-12-04T22:12:24.459Z,1.50
2018-12-04T22:14:55.762Z,1.83
2018-12-04T22:17:26.572Z,1.40
2018-12-04T22:19:57.492Z,1.37
2018-12-04T22:22:28.311Z,1.20
2018-12-04T22:25:00.647Z,1.40
2018-12-04T22:27:31.432Z,1.20
2018-12-04T22:30:02.232Z,1.20
2018-12-04T22:32:32.962Z,1.20
2018-12-04T22:35:04.087Z,1.80
2018-12-04T22:37:34.902Z,1.93
2018-12-04T22:40:06.527Z,1.93
2018-12-04T22:42:37.393Z,1.07
2018-12-04T22:45:13.648Z,1.40
2018-12-04T22:47:44.432Z,1.00
2018-12-04T22:50:15.235Z,1.00
2018-12-04T22:52:46.172Z,1.40
2018-12-04T22:55:17.273Z,1.47
2018-12-04T22:57:48.112Z,1.70
2018-12-04T23:00:28.247Z,1.27
2018-12-04T23:03:01.210Z,1.40
2018-12-04T23:05:33.282Z,1.20
2018-12-04T23:08:04.168Z,1.03
2018-12-04T23:10:35.107Z,1.20
2018-12-04T23:13:06.638Z,1.17
2018-12-04T23:15:37.505Z,1.30
2018-12-04T23:18:08.473Z,1.17
2018-12-04T23:20:39.452Z,1.60
2018-12-04T23:23:10.183Z,1.47
2018-12-04T23:25:41.287Z,1.30
2018-12-04T23:28:12.066Z,1.07
2018-12-04T23:30:42.867Z,1.13
2018-12-04T23:33:13.583Z,1.13
2018-12-04T23:35:44.357Z,0.97
2018-12-04T23:38:15.192Z,1.07
2018-12-04T23:40:46.112Z,0.90
2018-12-04T23:43:17.083Z,1.20
2018-12-04T23:45:47.963Z,1.40
2018-12-04T23:48:18.843Z,1.10
2018-12-04T23:50:49.708Z,1.00
2018-12-04T23:53:20.387Z,1.20
2018-12-04T23:55:51.198Z,0.87
2018-12-04T23:58:22.073Z,1.10
